Terminal Aerodrome Forecast
Issued by NWS Detroit/Pontiac, MI

Home | Current Version | Previous Version | Text Only | Print | Product List | Glossary On
Versions: 1 2 3 4 5 6 7 8 9 10 11 12 13 14 15 16 17
000
FTUS43 KDTX 272332
TAFFNT
TAF
KFNT 272332Z 2800/2824 16007KT 6SM BR SCT010 SCT100 BKN250
     FM280200 18005KT 3SM BR SCT250
     FM280400 20003KT 1SM BR SCT010
     FM280700 23005KT 3SM BR BKN007
     FM281300 25007KT P6SM BKN020 OVC040
     FM281700 27010KT P6SM BKN040
     FM282000 30010KT P6SM SCT040=

USA.gov is the U.S. government's official web portal to all federal, state and local government web resources and services.